043  
SXUS55 KMSO 271123  
OSOMSO  
MONTANA AWOS SUMMARY  
NATIONAL WEATHER SERVICE MISSOULA MT  
523 AM MDT SAT MAY 27 2017  
 
MONTANA AWOS REPORTS  
 
LAUREL |K6S8 271115Z AUTO 00000KT 40SM 03/M01 A3003 RMK AO1 T00281010  
ROUNDUP |KRPX 271115Z AUTO 18009KT 40SM 04/01 A2993 RMK AO1 T00390006  
 
CLICK HERE TO GO TO PREVIOUS BULLETINS.

The Nexlab MT Page
The Nexlab ID Page Main Text Page